Time;durP1;ratioP1;P1;durP2;ratioP2;P2;SDS_P1;SDS_P2;PMS_P1;PMS_P2;Temp;Humidity;BMP_temperature;BMP_pressure;BME280_temperature;BME280_humidity;BME280_pressure;Samples;Min_cycle;Max_cycle;Signal;HPM_P1;HPM_P2
2022/09/14 00:00:44;;;;;;;16.67;6.68;;;;;;;14.75;100.00;100592.78;1985628;28;20068;-77
2022/09/14 00:01:43;;;;;;;14.98;7.38;;;;;;;14.71;100.00;100587.84;1986166;28;20041;-77
2022/09/14 00:02:40;;;;;;;20.83;7.57;;;;;;;14.68;100.00;100588.91;1985946;28;20082;-77
2022/09/14 00:03:38;;;;;;;13.80;7.60;;;;;;;14.64;100.00;100587.38;1985464;28;20418;-77
2022/09/14 00:04:35;;;;;;;19.70;8.07;;;;;;;14.62;100.00;100584.03;1985738;28;20508;-77
2022/09/14 00:05:36;;;;;;;15.65;7.38;;;;;;;14.60;100.00;100576.25;1985573;28;20463;-76
2022/09/14 00:06:34;;;;;;;20.08;7.47;;;;;;;14.59;100.00;100584.22;1985705;28;20353;-77
2022/09/14 00:07:31;;;;;;;23.55;7.68;;;;;;;14.57;100.00;100573.00;1985665;28;20044;-77
2022/09/14 00:08:29;;;;;;;19.17;7.38;;;;;;;14.54;100.00;100574.00;1985581;28;20436;-77
2022/09/14 00:09:26;;;;;;;19.13;7.60;;;;;;;14.53;100.00;100569.69;1985634;28;20041;-77
2022/09/14 00:10:24;;;;;;;17.77;7.32;;;;;;;14.51;100.00;100567.16;1985728;28;20455;-77
2022/09/14 00:11:24;;;;;;;17.10;7.78;;;;;;;14.50;100.00;100559.38;1984682;28;20495;-77
2022/09/14 00:12:21;;;;;;;19.52;7.47;;;;;;;14.49;100.00;100552.44;1985697;28;20025;-78
2022/09/14 00:13:18;;;;;;;22.70;7.78;;;;;;;14.45;100.00;100550.97;1987870;28;20059;-77
2022/09/14 00:14:18;;;;;;;23.02;7.75;;;;;;;14.44;100.00;100555.34;1993217;28;20060;-77
2022/09/14 00:15:15;;;;;;;17.10;7.68;;;;;;;14.38;100.00;100554.00;1993388;28;20455;-77
2022/09/14 00:16:21;;;;;;;19.85;7.68;;;;;;;14.39;100.00;100558.31;1993433;28;20032;-77
2022/09/14 00:17:18;;;;;;;17.35;7.35;;;;;;;14.35;100.00;100551.56;1993952;28;20493;-77
2022/09/14 00:18:16;;;;;;;21.27;7.40;;;;;;;14.31;100.00;100559.72;1993155;28;20032;-77
2022/09/14 00:19:24;;;;;;;19.27;7.60;;;;;;;14.25;100.00;100555.69;1992972;28;20028;-77
2022/09/14 00:20:21;;;;;;;20.52;7.45;;;;;;;14.22;100.00;100561.13;1993212;28;20042;-77
2022/09/14 00:21:21;;;;;;;21.27;7.78;;;;;;;14.19;100.00;100562.16;1993448;28;20465;-76
2022/09/14 00:22:18;;;;;;;16.35;7.68;;;;;;;14.21;100.00;100559.44;1993191;28;20056;-77
2022/09/14 00:23:16;;;;;;;17.58;7.43;;;;;;;14.21;100.00;100554.19;1993338;28;20028;-77
2022/09/14 00:24:13;;;;;;;19.00;7.30;;;;;;;14.23;100.00;100560.22;1993086;28;20375;-77
2022/09/14 00:25:10;;;;;;;15.13;7.65;;;;;;;14.24;100.00;100564.50;1993350;28;20502;-78
2022/09/14 00:26:13;;;;;;;15.85;7.78;;;;;;;14.14;100.00;100559.81;1993212;28;20453;-77
2022/09/14 00:27:10;;;;;;;13.32;6.95;;;;;;;14.18;100.00;100564.88;1993334;28;20039;-77
2022/09/14 00:28:07;;;;;;;18.83;7.28;;;;;;;14.16;100.00;100565.81;1993062;28;20071;-77
2022/09/14 00:29:06;;;;;;;20.20;7.70;;;;;;;14.18;100.00;100570.97;1993417;28;20033;-77
2022/09/14 00:30:05;;;;;;;20.00;7.53;;;;;;;14.18;100.00;100564.88;1993294;28;20039;-77
2022/09/14 00:31:04;;;;;;;18.98;7.70;;;;;;;14.12;100.00;100566.97;1993247;28;20046;-77
2022/09/14 00:32:02;;;;;;;18.80;7.72;;;;;;;14.14;100.00;100570.31;1993340;28;20036;-77
2022/09/14 00:32:59;;;;;;;18.55;7.80;;;;;;;14.10;100.00;100568.81;1984900;28;20029;-77
2022/09/14 00:33:57;;;;;;;17.10;7.43;;;;;;;14.09;100.00;100567.13;1977149;28;20043;-77
2022/09/14 00:34:54;;;;;;;21.65;7.82;;;;;;;14.08;100.00;100568.09;1984186;28;20032;-77
2022/09/14 00:35:52;;;;;;;16.45;7.25;;;;;;;14.04;100.00;100563.97;1992363;28;20464;-77
2022/09/14 00:36:51;;;;;;;18.52;8.15;;;;;;;14.05;100.00;100560.41;1993744;28;20025;-77
2022/09/14 00:37:50;;;;;;;21.90;7.65;;;;;;;14.03;100.00;100562.28;1993813;28;20480;-77
2022/09/14 00:38:48;;;;;;;16.58;7.55;;;;;;;14.03;100.00;100559.66;1993514;28;20107;-77
2022/09/14 00:39:45;;;;;;;21.55;7.75;;;;;;;14.04;100.00;100558.72;1993341;28;20039;-77
2022/09/14 00:40:42;;;;;;;17.45;7.03;;;;;;;14.00;100.00;100551.97;1993145;28;20043;-77
2022/09/14 00:41:44;;;;;;;19.48;7.57;;;;;;;14.02;100.00;100555.34;1992710;28;20024;-77
2022/09/14 00:42:41;;;;;;;18.92;7.85;;;;;;;14.01;100.00;100546.63;1992799;28;20363;-77
2022/09/14 00:43:55;;;;;;;21.30;7.75;;;;;;;14.03;100.00;100552.63;1993242;28;20040;-77
2022/09/14 00:45:07;;;;;;;20.70;7.95;;;;;;;14.01;100.00;100554.50;1993238;28;20107;-77
2022/09/14 00:46:04;;;;;;;24.42;7.50;;;;;;;13.98;100.00;100544.19;1984735;28;20048;-77
2022/09/14 00:47:02;;;;;;;17.55;7.32;;;;;;;13.98;100.00;100548.59;1984742;28;20516;-77
2022/09/14 00:47:59;;;;;;;26.80;7.82;;;;;;;13.99;100.00;100545.06;1992496;28;20038;-77
2022/09/14 00:49:01;;;;;;;18.05;8.25;;;;;;;13.98;100.00;100543.34;1993657;28;20021;-77
2022/09/14 00:50:03;;;;;;;21.58;7.88;;;;;;;13.96;100.00;100540.00;1985436;28;20025;-77
2022/09/14 00:51:00;;;;;;;18.88;8.10;;;;;;;13.93;100.00;100530.53;1977524;28;20017;-77
2022/09/14 00:52:07;;;;;;;24.85;7.85;;;;;;;13.96;100.00;100530.31;1984727;28;20013;-77
2022/09/14 00:53:05;;;;;;;20.25;7.70;;;;;;;13.94;100.00;100521.72;1993032;28;20455;-78
2022/09/14 00:54:05;;;;;;;22.35;7.32;;;;;;;13.94;100.00;100523.50;1993216;28;20051;-77
2022/09/14 00:55:11;;;;;;;18.30;7.10;;;;;;;13.93;100.00;100529.69;1993222;28;20351;-77
2022/09/14 00:56:09;;;;;;;14.80;7.78;;;;;;;13.89;100.00;100519.38;1993306;28;20177;-77
2022/09/14 00:57:07;;;;;;;17.52;7.65;;;;;;;13.89;100.00;100519.38;1993370;28;20032;-77
2022/09/14 00:58:04;;;;;;;21.17;8.00;;;;;;;13.87;100.00;100518.63;1992973;28;20107;-77
2022/09/14 00:59:14;;;;;;;18.75;7.20;;;;;;;13.86;100.00;100514.31;1993182;28;20028;-77
2022/09/14 01:00:17;;;;;;;28.25;7.35;;;;;;;13.83;100.00;100521.53;1993350;28;20359;-77
2022/09/14 01:01:15;;;;;;;17.95;6.90;;;;;;;13.80;100.00;100522.56;1993125;28;20040;-77
2022/09/14 01:02:14;;;;;;;26.33;7.60;;;;;;;13.80;100.00;100525.19;1993250;28;20066;-77
2022/09/14 01:03:12;;;;;;;20.80;7.63;;;;;;;13.77;100.00;100514.88;1993125;28;20036;-77
2022/09/14 01:04:09;;;;;;;20.52;7.78;;;;;;;13.78;100.00;100516.56;1992957;28;20028;-78
2022/09/14 01:05:11;;;;;;;23.48;7.35;;;;;;;13.78;100.00;100517.41;1993264;28;20028;-77
2022/09/14 01:06:34;;;;;;;22.80;7.47;;;;;;;13.71;100.00;100510.00;1993018;28;20044;-78
2022/09/14 01:07:59;;;;;;;18.02;7.45;;;;;;;13.61;100.00;100504.47;1992655;28;20420;-78
2022/09/14 01:09:24;;;;;;;16.67;7.07;;;;;;;13.61;100.00;100507.94;1992976;28;20030;-76
2022/09/14 01:10:42;;;;;;;22.40;7.05;;;;;;;13.56;100.00;100502.16;1993116;28;20360;-77
2022/09/14 01:12:03;;;;;;;24.35;7.00;;;;;;;13.59;100.00;100501.94;1993072;28;20060;-77
2022/09/14 01:13:32;;;;;;;20.25;7.68;;;;;;;13.59;100.00;100499.31;1993110;28;20067;-77
2022/09/14 01:14:53;;;;;;;17.40;7.65;;;;;;;13.57;100.00;100498.59;1993040;28;20458;-78
2022/09/14 01:16:32;;;;;;;23.15;7.05;;;;;;;13.58;100.00;100505.50;1992958;28;20028;-76
2022/09/14 01:17:47;;;;;;;19.85;7.70;;;;;;;13.55;100.00;100499.63;1993257;28;20051;-77
2022/09/14 01:18:54;;;;;;;18.00;6.90;;;;;;;13.58;100.00;100499.44;1993025;28;20343;-77
2022/09/14 01:20:36;;;;;;;21.65;7.57;;;;;;;13.59;100.00;100490.63;1993104;28;20039;-78
2022/09/14 01:21:38;;;;;;;26.42;7.65;;;;;;;13.60;100.00;100485.31;1992861;28;20037;-77
2022/09/14 01:22:48;;;;;;;27.17;8.07;;;;;;;13.56;100.00;100498.69;1992783;28;20053;-77
2022/09/14 01:24:19;;;;;;;28.10;8.43;;;;;;;13.57;100.00;100498.59;1993154;28;20096;-77
2022/09/14 01:25:38;;;;;;;33.42;8.32;;;;;;;13.55;100.00;100495.22;1992595;28;20782;-77
2022/09/14 01:27:13;;;;;;;23.17;8.13;;;;;;;13.55;100.00;100499.63;1992539;28;20062;-78
2022/09/14 01:28:53;;;;;;;25.33;7.68;;;;;;;13.51;100.00;100505.03;1993003;28;20054;-77
2022/09/14 01:30:09;;;;;;;20.55;7.55;;;;;;;13.50;100.00;100503.38;1970543;28;20041;-77
2022/09/14 01:31:23;;;;;;;14.05;7.43;;;;;;;13.50;100.00;100499.91;1987815;28;20037;-76
2022/09/14 01:32:29;;;;;;;20.73;8.10;;;;;;;13.50;100.00;100497.28;1994659;28;20033;-77
2022/09/14 01:33:39;;;;;;;24.85;8.30;;;;;;;13.47;100.00;100497.41;1994460;28;20543;-77
2022/09/14 01:34:49;;;;;;;22.05;7.75;;;;;;;13.48;100.00;100494.75;1994783;28;20079;-78
2022/09/14 01:35:55;;;;;;;25.88;8.15;;;;;;;13.51;100.00;100504.19;1994764;28;20096;-77
2022/09/14 01:37:11;;;;;;;22.73;8.50;;;;;;;13.51;100.00;100499.81;1994679;28;20031;-77
2022/09/14 01:38:14;;;;;;;17.42;8.48;;;;;;;13.54;100.00;100498.78;1994962;28;20471;-78
2022/09/14 01:39:16;;;;;;;16.58;7.88;;;;;;;13.56;100.00;100502.16;1994438;28;20036;-77
2022/09/14 01:40:31;;;;;;;20.67;8.55;;;;;;;13.55;100.00;100500.44;1994805;28;20439;-77
2022/09/14 01:41:33;;;;;;;21.08;8.55;;;;;;;13.54;100.00;100504.00;1994777;28;20681;-78
2022/09/14 01:42:34;;;;;;;28.05;9.10;;;;;;;13.57;100.00;100503.84;1995114;28;20089;-78
2022/09/14 01:43:36;;;;;;;20.55;8.70;;;;;;;13.59;100.00;100495.88;1995030;28;20040;-78
2022/09/14 01:44:40;;;;;;;20.40;8.45;;;;;;;13.59;100.00;100499.31;1995066;28;20025;-76
2022/09/14 01:45:46;;;;;;;25.55;8.70;;;;;;;13.62;100.00;100496.53;1995136;28;20456;-77
2022/09/14 01:46:54;;;;;;;25.10;8.73;;;;;;;13.62;100.00;100496.53;1994976;28;20033;-78
2022/09/14 01:48:02;;;;;;;20.33;8.40;;;;;;;13.63;100.00;100493.00;1986693;28;20091;-77
2022/09/14 01:49:31;;;;;;;22.83;8.35;;;;;;;13.60;100.00;100487.06;1987127;28;20044;-77
2022/09/14 01:50:47;;;;;;;23.20;8.40;;;;;;;13.61;100.00;100494.00;1994811;28;20028;-77
2022/09/14 01:52:07;;;;;;;21.50;8.38;;;;;;;13.63;100.00;100493.00;1994305;28;20111;-77
2022/09/14 01:53:14;;;;;;;19.88;8.60;;;;;;;13.64;100.00;100489.41;1994021;28;20052;-77
2022/09/14 01:54:22;;;;;;;20.38;7.95;;;;;;;13.64;100.00;100494.66;1986085;28;20049;-77
2022/09/14 01:55:34;;;;;;;16.58;7.60;;;;;;;13.63;100.00;100490.38;1987435;28;20044;-77
2022/09/14 01:56:44;;;;;;;23.52;8.05;;;;;;;13.64;100.00;100493.81;1994975;28;20078;-77
2022/09/14 01:57:55;;;;;;;20.45;8.02;;;;;;;13.60;100.00;100487.94;1994767;28;20020;-77
2022/09/14 01:59:17;;;;;;;21.58;8.30;;;;;;;13.59;100.00;100483.59;1994992;28;20023;-78
2022/09/14 02:00:18;;;;;;;18.40;7.95;;;;;;;13.61;100.00;100483.50;1994948;28;20024;-77
2022/09/14 02:01:30;;;;;;;20.08;8.23;;;;;;;13.50;100.00;100486.78;1994878;28;20093;-77
2022/09/14 02:02:48;;;;;;;24.50;8.00;;;;;;;13.55;100.00;100484.72;1994379;28;20048;-77
2022/09/14 02:03:54;;;;;;;24.15;8.13;;;;;;;13.58;100.00;100483.72;1994520;28;20518;-77
2022/09/14 02:05:31;;;;;;;21.05;7.45;;;;;;;13.56;100.00;100483.81;1994558;28;20407;-76
2022/09/14 02:06:38;;;;;;;17.02;7.43;;;;;;;13.53;100.00;100486.59;1994212;28;20036;-77
2022/09/14 02:07:37;;;;;;;17.88;7.82;;;;;;;13.56;100.00;100486.44;1994409;28;20402;-77
2022/09/14 02:08:35;;;;;;;21.83;8.40;;;;;;;13.57;100.00;100477.63;1985940;28;20091;-77
2022/09/14 02:09:32;;;;;;;22.02;7.72;;;;;;;13.56;100.00;100482.94;1978204;28;20086;-77
2022/09/14 02:10:31;;;;;;;23.30;7.70;;;;;;;13.58;100.00;100479.28;1985165;28;20045;-77
2022/09/14 02:11:29;;;;;;;26.98;7.85;;;;;;;13.57;100.00;100482.88;1985311;28;20025;-78
2022/09/14 02:12:26;;;;;;;17.58;8.43;;;;;;;13.59;100.00;100477.53;1985926;28;20025;-76
2022/09/14 02:13:25;;;;;;;26.65;8.48;;;;;;;13.58;100.00;100479.28;1984902;28;20471;-77
2022/09/14 02:14:22;;;;;;;21.90;8.55;;;;;;;13.59;100.00;100485.41;1985912;28;20029;-77
2022/09/14 02:15:21;;;;;;;18.52;7.80;;;;;;;13.57;100.00;100482.88;1993822;28;20396;-77
2022/09/14 02:16:22;;;;;;;23.52;8.00;;;;;;;13.57;100.00;100482.00;1994104;28;20138;-78
2022/09/14 02:17:21;;;;;;;18.73;7.82;;;;;;;13.57;100.00;100482.88;1994375;28;20056;-77
2022/09/14 02:18:19;;;;;;;23.20;7.97;;;;;;;13.56;100.00;100475.94;1994355;28;20032;-78
2022/09/14 02:19:17;;;;;;;19.60;7.60;;;;;;;13.57;100.00;100482.88;1986048;28;20033;-79
2022/09/14 02:20:32;;;;;;;23.10;8.07;;;;;;;13.56;100.00;100483.81;1986007;28;20365;-76
2022/09/14 02:21:32;;;;;;;19.50;6.95;;;;;;;13.54;100.00;100483.03;1985860;28;20033;-76
2022/09/14 02:22:30;;;;;;;;;;;;;;;13.45;100.00;100479.16;1978722;28;20026;-76
2022/09/14 02:23:27;;;;;;;21.10;7.28;;;;;;;13.47;100.00;100481.69;1985593;28;19917;-76
2022/09/14 02:24:27;;;;;;;19.88;7.85;;;;;;;13.51;100.00;100484.06;1985100;28;20120;-79
2022/09/14 02:25:24;;;;;;;24.65;7.57;;;;;;;13.48;100.00;100486.03;1985986;28;20112;-76
2022/09/14 02:26:23;;;;;;;15.68;7.13;;;;;;;13.47;100.00;100482.53;1993657;28;20038;-79
2022/09/14 02:27:21;;;;;;;13.98;7.40;;;;;;;13.49;100.00;100485.94;1994322;28;20024;-76
2022/09/14 02:28:18;;;;;;;20.90;7.97;;;;;;;13.47;100.00;100485.16;1994172;28;20035;-76
2022/09/14 02:29:16;;;;;;;16.85;7.90;;;;;;;13.48;100.00;100483.41;1994088;28;20047;-77
2022/09/14 02:30:15;;;;;;;20.83;7.82;;;;;;;13.47;100.00;100486.94;1994090;28;20044;-77
2022/09/14 02:31:28;;;;;;;18.17;7.28;;;;;;;13.46;100.00;100487.88;1993988;28;20455;-76
2022/09/14 02:32:59;;;;;;;20.33;7.53;;;;;;;13.45;100.00;100483.56;1994203;28;20123;-76
2022/09/14 02:34:31;;;;;;;17.08;7.00;;;;;;;13.37;100.00;100490.13;1994050;28;20044;-77
2022/09/14 02:35:44;;;;;;;19.33;7.05;;;;;;;13.37;100.00;100484.88;1994070;28;20040;-78
2022/09/14 02:37:18;;;;;;;20.40;7.43;;;;;;;13.38;100.00;100489.19;1994150;28;20456;-78
2022/09/14 02:38:55;;;;;;;16.38;7.07;;;;;;;13.33;100.00;100486.00;1994720;28;20028;-77
2022/09/14 02:40:29;;;;;;;16.80;6.85;;;;;;;13.32;100.00;100484.31;1994619;28;20406;-77
2022/09/14 02:41:50;;;;;;;17.15;7.32;;;;;;;13.30;100.00;100488.78;1994257;28;20028;-76
2022/09/14 02:43:30;;;;;;;19.83;7.35;;;;;;;13.28;100.00;100482.81;1994641;28;20042;-77
2022/09/14 02:45:24;;;;;;;21.45;7.25;;;;;;;13.25;100.00;100485.63;1993971;28;20033;-77
2022/09/14 02:46:41;;;;;;;16.63;6.68;;;;;;;13.27;100.00;100475.88;1969456;28;20088;-77
2022/09/14 02:48:14;;;;;;;19.80;7.22;;;;;;;13.26;100.00;100484.69;1981286;28;20045;-76
2022/09/14 02:49:24;;;;;;;13.68;7.00;;;;;;;13.25;100.00;100488.25;1993997;28;20047;-78
2022/09/14 02:50:34;;;;;;;21.88;7.55;;;;;;;13.26;100.00;100484.69;1994152;28;20038;-77
2022/09/14 02:51:58;;;;;;;16.40;7.30;;;;;;;13.29;100.00;100479.25;1994097;28;20521;-77
2022/09/14 02:53:12;;;;;;;17.95;7.07;;;;;;;13.30;100.00;100480.06;1994123;28;20698;-77
2022/09/14 02:54:12;;;;;;;23.02;7.55;;;;;;;13.32;100.00;100473.84;1993805;28;20056;-78
2022/09/14 02:55:13;;;;;;;;;;;;;;;13.22;100.00;100483.16;1994065;28;20043;-77
2022/09/14 02:56:12;;;;;;;17.75;7.22;;;;;;;13.26;100.00;100474.19;1993450;28;19913;-77
2022/09/14 02:57:10;;;;;;;17.48;7.63;;;;;;;13.31;100.00;100473.94;1994066;28;20075;-77
2022/09/14 02:58:13;;;;;;;15.02;6.93;;;;;;;13.33;100.00;100478.13;1993880;28;20364;-77
2022/09/14 02:59:11;;;;;;;18.75;7.38;;;;;;;13.31;100.00;100472.13;1994545;28;20031;-78
2022/09/14 03:00:09;;;;;;;18.02;7.15;;;;;;;13.34;100.00;100476.38;1994513;28;20038;-77
2022/09/14 03:01:11;;;;;;;18.73;7.38;;;;;;;13.35;100.00;100470.19;1985610;28;20035;-77
2022/09/14 03:02:12;;;;;;;19.63;7.22;;;;;;;13.34;100.00;100471.94;1986207;28;20037;-77
2022/09/14 03:03:12;;;;;;;14.13;7.07;;;;;;;13.36;100.00;100475.34;1994107;28;20028;-78
2022/09/14 03:04:10;;;;;;;16.08;7.20;;;;;;;13.36;100.00;100464.84;1994474;28;20471;-77
2022/09/14 03:05:07;;;;;;;15.27;7.63;;;;;;;13.36;100.00;100464.84;1985999;28;20044;-78
2022/09/14 03:06:05;;;;;;;26.98;7.60;;;;;;;13.38;100.00;100455.09;1978133;28;20036;-77
2022/09/14 03:07:03;;;;;;;19.67;7.43;;;;;;;13.38;100.00;100457.72;1984888;28;20033;-77
2022/09/14 03:08:02;;;;;;;20.15;7.15;;;;;;;13.38;100.00;100462.97;1993185;28;20016;-77
2022/09/14 03:09:00;;;;;;;23.52;7.95;;;;;;;13.39;100.00;100463.81;1994331;28;20117;-77
2022/09/14 03:09:57;;;;;;;22.80;7.18;;;;;;;13.39;100.00;100454.16;1994461;28;20040;-77
2022/09/14 03:10:55;;;;;;;18.48;7.22;;;;;;;13.39;100.00;100459.41;1993344;28;20052;-76
2022/09/14 03:11:53;;;;;;;17.33;7.63;;;;;;;13.40;100.00;100462.88;1994014;28;20108;-76
2022/09/14 03:12:51;;;;;;;22.13;7.40;;;;;;;13.39;100.00;100458.59;1994255;28;20027;-77
2022/09/14 03:13:48;;;;;;;14.32;7.15;;;;;;;13.42;100.00;100458.41;1994262;28;20101;-77
2022/09/14 03:14:45;;;;;;;19.67;7.30;;;;;;;13.44;100.00;100458.31;1994398;28;20107;-76
2022/09/14 03:15:43;;;;;;;18.92;7.40;;;;;;;13.42;100.00;100458.41;1994513;28;20450;-76
2022/09/14 03:16:40;;;;;;;23.05;7.97;;;;;;;13.44;100.00;100453.06;1985998;28;20044;-77
2022/09/14 03:17:38;;;;;;;17.23;7.43;;;;;;;13.39;100.00;100454.16;1985742;28;20027;-77
2022/09/14 03:18:36;;;;;;;22.05;7.60;;;;;;;13.43;100.00;100454.84;1993527;28;20028;-77
2022/09/14 03:19:34;;;;;;;19.65;7.80;;;;;;;13.41;100.00;100453.25;1994297;28;20032;-77
2022/09/14 03:20:33;;;;;;;22.23;6.95;;;;;;;13.42;100.00;100453.16;1985601;28;20024;-78
2022/09/14 03:21:32;;;;;;;18.50;7.28;;;;;;;13.43;100.00;100451.38;1977436;28;20029;-76
2022/09/14 03:22:29;;;;;;;23.25;7.43;;;;;;;13.42;100.00;100454.94;1985291;28;20041;-76
2022/09/14 03:23:26;;;;;;;16.45;7.38;;;;;;;13.39;100.00;100446.31;1993125;28;20036;-77
2022/09/14 03:24:24;;;;;;;19.60;7.35;;;;;;;13.42;100.00;100454.94;1993852;28;20106;-76
2022/09/14 03:25:24;;;;;;;25.88;7.75;;;;;;;13.39;100.00;100459.41;1993685;28;20081;-76
2022/09/14 03:26:24;;;;;;;22.42;7.30;;;;;;;13.36;100.00;100454.38;1993792;28;20047;-77
2022/09/14 03:27:21;;;;;;;;;;;;;;;13.28;100.00;100451.38;1994151;28;20119;-77
2022/09/14 03:28:19;;;;;;;21.17;6.75;;;;;;;13.31;100.00;100450.34;1993867;28;19923;-77
2022/09/14 03:29:16;;;;;;;14.93;7.28;;;;;;;13.32;100.00;100450.25;1993852;28;20032;-76
2022/09/14 03:30:14;;;;;;;24.65;7.07;;;;;;;13.35;100.00;100452.66;1993758;28;20029;-77
2022/09/14 03:31:11;;;;;;;17.05;7.15;;;;;;;13.33;100.00;100443.22;1985236;28;20449;-78
2022/09/14 03:32:12;;;;;;;17.88;7.80;;;;;;;13.34;100.00;100450.16;1985394;28;20075;-79
2022/09/14 03:33:09;;;;;;;21.77;7.45;;;;;;;13.30;100.00;100449.50;1993959;28;20043;-81
2022/09/14 03:34:09;;;;;;;17.23;7.32;;;;;;;13.34;100.00;100447.53;1994135;28;20020;-77
2022/09/14 03:35:07;;;;;;;13.10;7.47;;;;;;;13.34;100.00;100440.50;1994477;28;20497;-77
2022/09/14 03:36:18;;;;;;;18.58;7.22;;;;;;;13.32;100.00;100437.16;1994287;28;20416;-77
2022/09/14 03:37:15;;;;;;;19.27;7.93;;;;;;;13.32;100.00;100437.16;1994390;28;20031;-76
2022/09/14 03:38:13;;;;;;;13.10;6.72;;;;;;;13.34;100.00;100437.88;1993654;28;20028;-77
2022/09/14 03:39:11;;;;;;;17.92;7.18;;;;;;;13.35;100.00;100426.47;1993311;28;20436;-75
2022/09/14 03:40:11;;;;;;;16.27;7.43;;;;;;;13.36;100.00;100428.16;1993138;28;20029;-77
2022/09/14 03:41:13;;;;;;;20.85;7.05;;;;;;;13.35;100.00;100425.63;1993541;28;20036;-77
2022/09/14 03:42:10;;;;;;;19.92;7.30;;;;;;;13.29;100.00;100434.72;1994186;28;20421;-77
2022/09/14 03:43:11;;;;;;;19.75;7.40;;;;;;;13.32;100.00;100426.66;1993777;28;20035;-77
2022/09/14 03:44:12;;;;;;;18.63;7.13;;;;;;;13.31;100.00;100424.97;1985664;28;20040;-78
2022/09/14 03:45:14;;;;;;;25.52;7.68;;;;;;;13.31;100.00;100422.34;1985874;28;20025;-79
2022/09/14 03:46:15;;;;;;;17.17;7.90;;;;;;;13.29;100.00;100420.75;1993744;28;20043;-77
2022/09/14 03:47:12;;;;;;;25.90;8.88;;;;;;;13.31;100.00;100419.72;1993545;28;20048;-77
2022/09/14 03:48:14;;;;;;;25.70;8.27;;;;;;;13.28;100.00;100419.94;1993612;28;20380;-78
2022/09/14 03:49:11;;;;;;;22.10;7.78;;;;;;;13.28;100.00;100417.31;1993248;28;20473;-77
2022/09/14 03:50:14;;;;;;;24.58;8.52;;;;;;;13.18;100.00;100413.56;1993769;28;20025;-77
2022/09/14 03:51:13;;;;;;;17.48;7.60;;;;;;;13.23;100.00;100416.72;1993557;28;20056;-76
2022/09/14 03:52:10;;;;;;;18.25;7.95;;;;;;;13.25;100.00;100415.69;1993393;28;20028;-76
2022/09/14 03:53:07;;;;;;;24.77;7.93;;;;;;;13.20;100.00;100416.91;1993053;28;20039;-77
2022/09/14 03:54:05;;;;;;;16.10;8.00;;;;;;;13.19;100.00;100421.31;1993046;28;20028;-77
2022/09/14 03:55:05;;;;;;;21.13;8.43;;;;;;;13.22;100.00;100415.06;1993378;28;20032;-77
2022/09/14 03:56:11;;;;;;;21.00;7.97;;;;;;;13.23;100.00;100421.97;1993517;28;20032;-76
2022/09/14 03:57:12;;;;;;;23.25;8.38;;;;;;;13.24;100.00;100416.63;1993506;28;20043;-77
2022/09/14 03:58:09;;;;;;;22.98;8.40;;;;;;;13.21;100.00;100408.97;1993335;28;20372;-78
2022/09/14 03:59:10;;;;;;;17.38;8.30;;;;;;;13.24;100.00;100413.19;1993503;28;20032;-76
2022/09/14 04:00:10;;;;;;;19.98;8.70;;;;;;;13.27;100.00;100412.97;1985104;28;20079;-78
2022/09/14 04:01:14;;;;;;;16.85;8.45;;;;;;;13.28;100.00;100401.59;1985012;28;20055;-77
2022/09/14 04:02:12;;;;;;;18.67;8.07;;;;;;;13.29;100.00;100405.88;1993576;28;20472;-77
2022/09/14 04:03:09;;;;;;;29.60;8.30;;;;;;;13.29;100.00;100405.88;1993914;28;20032;-78
2022/09/14 04:04:07;;;;;;;23.10;8.30;;;;;;;13.26;100.00;100400.81;1993961;28;20028;-77
2022/09/14 04:05:06;;;;;;;26.75;8.52;;;;;;;13.29;100.00;100399.78;1985711;28;20475;-78
2022/09/14 04:06:04;;;;;;;18.65;8.63;;;;;;;13.30;100.00;100404.94;1977392;28;20041;-77
2022/09/14 04:07:01;;;;;;;17.45;8.98;;;;;;;13.27;100.00;100402.50;1984639;28;20025;-77
2022/09/14 04:07:59;;;;;;;24.63;8.73;;;;;;;13.25;100.00;100405.22;1992684;28;20050;-79
2022/09/14 04:08:56;;;;;;;24.75;8.77;;;;;;;13.26;100.00;100408.69;1993041;28;20501;-78
2022/09/14 04:09:54;;;;;;;19.83;8.48;;;;;;;13.26;100.00;100400.81;1984921;28;20033;-78
2022/09/14 04:10:52;;;;;;;19.80;8.13;;;;;;;13.27;100.00;100405.13;1985195;28;20033;-77
2022/09/14 04:11:49;;;;;;;23.23;7.88;;;;;;;13.26;100.00;100408.69;1992750;28;20035;-77
2022/09/14 04:12:47;;;;;;;28.45;8.23;;;;;;;13.24;100.00;100405.34;1992956;28;20150;-77
2022/09/14 04:13:46;;;;;;;22.02;8.27;;;;;;;13.23;100.00;100406.25;1992755;28;20070;-78
2022/09/14 04:14:43;;;;;;;18.67;8.05;;;;;;;13.18;100.00;100409.16;1985065;28;20068;-77
2022/09/14 04:15:40;;;;;;;20.63;8.15;;;;;;;13.21;100.00;100402.88;1985046;28;20472;-77
2022/09/14 04:16:42;;;;;;;18.35;8.23;;;;;;;13.21;100.00;100402.88;1984129;28;20455;-78
2022/09/14 04:17:41;;;;;;;16.98;8.10;;;;;;;13.21;100.00;100405.50;1985506;28;20083;-78
2022/09/14 04:18:39;;;;;;;20.25;8.57;;;;;;;13.19;100.00;100405.59;1993874;28;20112;-77
2022/09/14 04:19:40;;;;;;;18.35;8.13;;;;;;;13.20;100.00;100407.28;1993822;28;20043;-77
2022/09/14 04:20:37;;;;;;;20.55;8.68;;;;;;;13.20;100.00;100402.03;1993974;28;20032;-77
2022/09/14 04:21:35;;;;;;;22.83;8.30;;;;;;;13.21;100.00;100402.88;1993334;28;20447;-77
2022/09/14 04:22:33;;;;;;;17.30;8.32;;;;;;;13.20;100.00;100402.03;1993333;28;20082;-77
2022/09/14 04:23:31;;;;;;;22.67;8.45;;;;;;;13.20;100.00;100403.81;1993576;28;20428;-77
2022/09/14 04:24:28;;;;;;;19.67;8.25;;;;;;;13.18;100.00;100408.31;1993325;28;20040;-78
2022/09/14 04:25:26;;;;;;;22.95;8.07;;;;;;;13.17;100.00;100401.41;1993459;28;20120;-77
2022/09/14 04:26:28;;;;;;;19.17;8.25;;;;;;;13.14;100.00;100405.88;1993333;28;20338;-77
2022/09/14 04:27:25;;;;;;;19.50;7.43;;;;;;;13.16;100.00;100404.94;1993360;28;20036;-76
2022/09/14 04:28:24;;;;;;;17.85;8.10;;;;;;;13.14;100.00;100405.88;1993644;28;20058;-77
2022/09/14 04:29:21;;;;;;;20.17;7.60;;;;;;;13.15;100.00;100404.09;1993843;28;20028;-77
2022/09/14 04:30:18;;;;;;;22.02;7.57;;;;;;;13.17;100.00;100404.84;1993852;28;20028;-77
2022/09/14 04:31:16;;;;;;;19.52;8.13;;;;;;;13.09;100.00;100402.69;1993197;28;20314;-77
2022/09/14 04:32:14;;;;;;;18.73;7.70;;;;;;;13.13;100.00;100398.94;1984760;28;20037;-78
2022/09/14 04:33:11;;;;;;;20.98;7.88;;;;;;;13.14;100.00;100403.25;1985530;28;20452;-77
2022/09/14 04:34:12;;;;;;;21.02;8.30;;;;;;;13.16;100.00;100402.31;1992850;28;20062;-77
2022/09/14 04:35:10;;;;;;;19.55;8.13;;;;;;;13.13;100.00;100398.94;1993835;28;20059;-78
2022/09/14 04:36:13;;;;;;;20.27;7.82;;;;;;;13.14;100.00;100402.44;1993850;28;20367;-77
2022/09/14 04:37:11;;;;;;;13.68;7.63;;;;;;;13.17;100.00;100396.16;1993865;28;20439;-78
2022/09/14 04:38:08;;;;;;;12.48;7.13;;;;;;;13.18;100.00;100392.59;1993346;28;20079;-77
2022/09/14 04:39:06;;;;;;;14.18;7.32;;;;;;;13.16;100.00;100394.44;1985373;28;20074;-77
2022/09/14 04:40:04;;;;;;;17.42;7.80;;;;;;;13.13;100.00;100391.09;1985666;28;20025;-76
2022/09/14 04:41:06;;;;;;;17.17;7.60;;;;;;;13.17;100.00;100391.75;1983972;28;20035;-78
2022/09/14 04:42:04;;;;;;;15.93;7.47;;;;;;;13.17;100.00;100390.91;1985121;28;20040;-77
2022/09/14 04:43:02;;;;;;;15.02;7.25;;;;;;;13.18;100.00;100387.34;1993104;28;20032;-77
2022/09/14 04:44:00;;;;;;;16.30;7.07;;;;;;;13.16;100.00;100391.81;1984782;28;20028;-78
2022/09/14 04:44:57;;;;;;;21.15;7.53;;;;;;;13.08;100.00;100394.94;1977043;28;20393;-77
2022/09/14 04:46:02;;;;;;;14.65;7.13;;;;;;;13.09;100.00;100391.38;1984060;28;20029;-77
2022/09/14 04:46:59;;;;;;;15.18;7.03;;;;;;;13.07;100.00;100391.44;1984894;28;20048;-76
2022/09/14 04:47:56;;;;;;;16.23;7.20;;;;;;;13.04;100.00;100388.19;1993841;28;20036;-76
2022/09/14 04:48:54;;;;;;;16.63;7.15;;;;;;;13.06;100.00;100384.53;1993589;28;20047;-77